sensor_id;sensor_type;location;lat;lon;timestamp;temperature;humidity
37896;DHT22;23733;53.254;10.430;2022-11-15T00:00:53;6.70;99.90
37896;DHT22;23733;53.254;10.430;2022-11-15T00:03:22;6.80;99.90
37896;DHT22;23733;53.254;10.430;2022-11-15T00:05:48;6.70;99.90
37896;DHT22;23733;53.254;10.430;2022-11-15T00:08:15;6.70;99.90
37896;DHT22;23733;53.254;10.430;2022-11-15T00:10:41;6.70;99.90
37896;DHT22;23733;53.254;10.430;2022-11-15T00:13:08;6.70;99.90
37896;DHT22;23733;53.254;10.430;2022-11-15T00:15:36;6.70;99.90
37896;DHT22;23733;53.254;10.430;2022-11-15T00:18:05;6.70;99.90
37896;DHT22;23733;53.254;10.430;2022-11-15T00:20:35;6.70;99.90
37896;DHT22;23733;53.254;10.430;2022-11-15T00:23:03;6.70;99.90
37896;DHT22;23733;53.254;10.430;2022-11-15T00:25:30;6.70;99.90
37896;DHT22;23733;53.254;10.430;2022-11-15T00:27:57;6.70;99.90
37896;DHT22;23733;53.254;10.430;2022-11-15T00:30:23;6.70;99.90
37896;DHT22;23733;53.254;10.430;2022-11-15T00:32:50;6.70;99.90
37896;DHT22;23733;53.254;10.430;2022-11-15T00:35:16;6.70;99.90
37896;DHT22;23733;53.254;10.430;2022-11-15T00:37:42;6.60;99.90
37896;DHT22;23733;53.254;10.430;2022-11-15T00:40:09;6.60;99.90
37896;DHT22;23733;53.254;10.430;2022-11-15T00:42:35;6.60;99.90
37896;DHT22;23733;53.254;10.430;2022-11-15T00:45:02;6.60;99.90
37896;DHT22;23733;53.254;10.430;2022-11-15T00:47:28;6.60;99.90
37896;DHT22;23733;53.254;10.430;2022-11-15T00:49:54;6.60;99.90
37896;DHT22;23733;53.254;10.430;2022-11-15T00:52:20;6.60;99.90
37896;DHT22;23733;53.254;10.430;2022-11-15T00:54:46;6.60;99.90
37896;DHT22;23733;53.254;10.430;2022-11-15T00:57:12;6.60;99.90
37896;DHT22;23733;53.254;10.430;2022-11-15T00:59:38;6.60;99.90
37896;DHT22;23733;53.254;10.430;2022-11-15T01:02:04;6.60;99.90
37896;DHT22;23733;53.254;10.430;2022-11-15T01:04:30;6.60;99.90
37896;DHT22;23733;53.254;10.430;2022-11-15T01:06:56;6.60;99.90
37896;DHT22;23733;53.254;10.430;2022-11-15T01:09:22;6.60;99.90
37896;DHT22;23733;53.254;10.430;2022-11-15T01:11:48;6.60;99.90
37896;DHT22;23733;53.254;10.430;2022-11-15T01:14:14;6.50;99.90
37896;DHT22;23733;53.254;10.430;2022-11-15T01:16:40;6.60;99.90
37896;DHT22;23733;53.254;10.430;2022-11-15T01:19:06;6.50;99.90
37896;DHT22;23733;53.254;10.430;2022-11-15T01:21:32;6.50;99.90
37896;DHT22;23733;53.254;10.430;2022-11-15T01:23:58;6.50;99.90
37896;DHT22;23733;53.254;10.430;2022-11-15T01:26:25;6.50;99.90
37896;DHT22;23733;53.254;10.430;2022-11-15T01:28:51;6.50;99.90
37896;DHT22;23733;53.254;10.430;2022-11-15T01:31:19;6.50;99.90
37896;DHT22;23733;53.254;10.430;2022-11-15T01:33:46;6.50;99.90
37896;DHT22;23733;53.254;10.430;2022-11-15T01:36:18;6.50;99.90
37896;DHT22;23733;53.254;10.430;2022-11-15T01:38:44;6.50;99.90
37896;DHT22;23733;53.254;10.430;2022-11-15T01:41:18;6.50;99.90
37896;DHT22;23733;53.254;10.430;2022-11-15T01:43:48;6.50;99.90
37896;DHT22;23733;53.254;10.430;2022-11-15T01:46:28;6.50;99.90
37896;DHT22;23733;53.254;10.430;2022-11-15T01:49:00;6.50;99.90
37896;DHT22;23733;53.254;10.430;2022-11-15T01:51:29;6.50;99.90
37896;DHT22;23733;53.254;10.430;2022-11-15T01:54:04;6.50;99.90
37896;DHT22;23733;53.254;10.430;2022-11-15T01:56:37;6.50;99.90
37896;DHT22;23733;53.254;10.430;2022-11-15T01:59:06;6.50;99.90
37896;DHT22;23733;53.254;10.430;2022-11-15T02:01:33;6.50;99.90
37896;DHT22;23733;53.254;10.430;2022-11-15T02:04:03;6.50;99.90
37896;DHT22;23733;53.254;10.430;2022-11-15T02:06:31;6.50;99.90
37896;DHT22;23733;53.254;10.430;2022-11-15T02:08:58;6.50;99.90
37896;DHT22;23733;53.254;10.430;2022-11-15T02:11:25;6.40;99.90
37896;DHT22;23733;53.254;10.430;2022-11-15T02:13:51;6.50;99.90
37896;DHT22;23733;53.254;10.430;2022-11-15T02:36:21;6.40;99.90
37896;DHT22;23733;53.254;10.430;2022-11-15T02:38:59;6.30;99.90
37896;DHT22;23733;53.254;10.430;2022-11-15T02:41:42;6.30;99.90
37896;DHT22;23733;53.254;10.430;2022-11-15T02:44:19;6.30;99.90
37896;DHT22;23733;53.254;10.430;2022-11-15T02:47:00;6.30;99.90
37896;DHT22;23733;53.254;10.430;2022-11-15T02:49:42;6.30;99.90
37896;DHT22;23733;53.254;10.430;2022-11-15T02:52:17;6.30;99.90
37896;DHT22;23733;53.254;10.430;2022-11-15T02:54:57;6.20;99.90
37896;DHT22;23733;53.254;10.430;2022-11-15T03:00:34;6.10;99.90
37896;DHT22;23733;53.254;10.430;2022-11-15T03:03:13;6.10;99.90
37896;DHT22;23733;53.254;10.430;2022-11-15T03:05:51;6.10;99.90
37896;DHT22;23733;53.254;10.430;2022-11-15T03:08:22;6.10;99.90
37896;DHT22;23733;53.254;10.430;2022-11-15T03:13:34;6.10;99.90
37896;DHT22;23733;53.254;10.430;2022-11-15T03:16:05;6.10;99.90
37896;DHT22;23733;53.254;10.430;2022-11-15T03:18:35;6.10;99.90
37896;DHT22;23733;53.254;10.430;2022-11-15T03:21:06;6.10;99.90
37896;DHT22;23733;53.254;10.430;2022-11-15T03:23:37;6.10;99.90
37896;DHT22;23733;53.254;10.430;2022-11-15T03:26:07;6.20;99.90
37896;DHT22;23733;53.254;10.430;2022-11-15T03:28:41;6.20;99.90
37896;DHT22;23733;53.254;10.430;2022-11-15T03:31:10;6.20;99.90
37896;DHT22;23733;53.254;10.430;2022-11-15T03:33:57;6.20;99.90
37896;DHT22;23733;53.254;10.430;2022-11-15T03:36:26;6.20;99.90
37896;DHT22;23733;53.254;10.430;2022-11-15T03:38:55;6.20;99.90
37896;DHT22;23733;53.254;10.430;2022-11-15T03:41:37;6.20;99.90
37896;DHT22;23733;53.254;10.430;2022-11-15T03:44:32;6.20;99.90
37896;DHT22;23733;53.254;10.430;2022-11-15T03:47:06;6.30;99.90
37896;DHT22;23733;53.254;10.430;2022-11-15T03:49:35;6.20;99.90
37896;DHT22;23733;53.254;10.430;2022-11-15T03:52:03;6.20;99.90
37896;DHT22;23733;53.254;10.430;2022-11-15T03:54:30;6.20;99.90
37896;DHT22;23733;53.254;10.430;2022-11-15T03:56:56;6.20;99.90
37896;DHT22;23733;53.254;10.430;2022-11-15T03:59:22;6.20;99.90
37896;DHT22;23733;53.254;10.430;2022-11-15T04:01:48;6.20;99.90
37896;DHT22;23733;53.254;10.430;2022-11-15T04:04:14;6.20;99.90
37896;DHT22;23733;53.254;10.430;2022-11-15T04:06:40;6.20;99.90
37896;DHT22;23733;53.254;10.430;2022-11-15T04:09:06;6.20;99.90
37896;DHT22;23733;53.254;10.430;2022-11-15T04:11:32;6.30;99.90
37896;DHT22;23733;53.254;10.430;2022-11-15T04:13:58;6.30;99.90
37896;DHT22;23733;53.254;10.430;2022-11-15T04:16:24;6.30;99.90
37896;DHT22;23733;53.254;10.430;2022-11-15T04:18:50;6.30;99.90
37896;DHT22;23733;53.254;10.430;2022-11-15T04:21:36;6.20;99.90
37896;DHT22;23733;53.254;10.430;2022-11-15T04:24:21;6.20;99.90
37896;DHT22;23733;53.254;10.430;2022-11-15T04:26:47;6.20;99.90
37896;DHT22;23733;53.254;10.430;2022-11-15T04:29:13;6.20;99.90
37896;DHT22;23733;53.254;10.430;2022-11-15T04:31:58;6.20;99.90
37896;DHT22;23733;53.254;10.430;2022-11-15T04:34:24;6.20;99.90
37896;DHT22;23733;53.254;10.430;2022-11-15T04:36:50;6.20;99.90
37896;DHT22;23733;53.254;10.430;2022-11-15T04:39:34;6.10;99.90
37896;DHT22;23733;53.254;10.430;2022-11-15T04:42:00;6.10;99.90
37896;DHT22;23733;53.254;10.430;2022-11-15T04:44:26;6.00;99.90
37896;DHT22;23733;53.254;10.430;2022-11-15T04:46:52;6.10;99.90
37896;DHT22;23733;53.254;10.430;2022-11-15T04:49:18;6.00;99.90
37896;DHT22;23733;53.254;10.430;2022-11-15T04:51:44;6.00;99.90
37896;DHT22;23733;53.254;10.430;2022-11-15T04:54:10;6.00;99.90
37896;DHT22;23733;53.254;10.430;2022-11-15T04:56:36;6.00;99.90
37896;DHT22;23733;53.254;10.430;2022-11-15T04:59:02;6.00;99.90
37896;DHT22;23733;53.254;10.430;2022-11-15T05:01:28;6.00;99.90
37896;DHT22;23733;53.254;10.430;2022-11-15T05:03:54;6.00;99.90
37896;DHT22;23733;53.254;10.430;2022-11-15T05:06:39;6.00;99.90
37896;DHT22;23733;53.254;10.430;2022-11-15T05:09:05;6.00;99.90
37896;DHT22;23733;53.254;10.430;2022-11-15T05:11:31;6.00;99.90
37896;DHT22;23733;53.254;10.430;2022-11-15T05:13:57;6.00;99.90
37896;DHT22;23733;53.254;10.430;2022-11-15T05:16:23;6.00;99.90
37896;DHT22;23733;53.254;10.430;2022-11-15T05:18:53;6.00;99.90
37896;DHT22;23733;53.254;10.430;2022-11-15T05:21:20;6.00;99.90
37896;DHT22;23733;53.254;10.430;2022-11-15T05:23:46;6.00;99.90
37896;DHT22;23733;53.254;10.430;2022-11-15T05:26:12;6.00;99.90
37896;DHT22;23733;53.254;10.430;2022-11-15T05:28:40;6.00;99.90
37896;DHT22;23733;53.254;10.430;2022-11-15T05:31:11;6.00;99.90
37896;DHT22;23733;53.254;10.430;2022-11-15T05:33:38;6.00;99.90
37896;DHT22;23733;53.254;10.430;2022-11-15T05:38:53;6.00;99.90
37896;DHT22;23733;53.254;10.430;2022-11-15T05:41:22;6.00;99.90
37896;DHT22;23733;53.254;10.430;2022-11-15T05:43:51;6.00;99.90
37896;DHT22;23733;53.254;10.430;2022-11-15T05:46:17;6.00;99.90
37896;DHT22;23733;53.254;10.430;2022-11-15T05:48:46;6.10;99.90
37896;DHT22;23733;53.254;10.430;2022-11-15T05:51:15;6.10;99.90
37896;DHT22;23733;53.254;10.430;2022-11-15T05:53:43;6.10;99.90
37896;DHT22;23733;53.254;10.430;2022-11-15T05:56:10;6.10;99.90
37896;DHT22;23733;53.254;10.430;2022-11-15T05:58:37;6.10;99.90
37896;DHT22;23733;53.254;10.430;2022-11-15T06:01:03;6.10;99.90
37896;DHT22;23733;53.254;10.430;2022-11-15T06:03:29;6.10;99.90
37896;DHT22;23733;53.254;10.430;2022-11-15T06:05:56;6.10;99.90
37896;DHT22;23733;53.254;10.430;2022-11-15T06:08:22;6.20;99.90
37896;DHT22;23733;53.254;10.430;2022-11-15T06:10:48;6.20;99.90
37896;DHT22;23733;53.254;10.430;2022-11-15T06:13:14;6.10;99.90
37896;DHT22;23733;53.254;10.430;2022-11-15T06:15:40;6.10;99.90
37896;DHT22;23733;53.254;10.430;2022-11-15T06:18:06;6.10;99.90
37896;DHT22;23733;53.254;10.430;2022-11-15T06:20:32;6.10;99.90
37896;DHT22;23733;53.254;10.430;2022-11-15T06:23:00;6.20;99.90
37896;DHT22;23733;53.254;10.430;2022-11-15T06:25:27;6.20;99.90
37896;DHT22;23733;53.254;10.430;2022-11-15T06:27:54;6.20;99.90
37896;DHT22;23733;53.254;10.430;2022-11-15T06:30:21;6.20;99.90
37896;DHT22;23733;53.254;10.430;2022-11-15T06:49:53;6.20;99.90
37896;DHT22;23733;53.254;10.430;2022-11-15T06:52:19;6.20;99.90
37896;DHT22;23733;53.254;10.430;2022-11-15T06:54:45;6.30;99.90
37896;DHT22;23733;53.254;10.430;2022-11-15T06:57:11;6.30;99.90
37896;DHT22;23733;53.254;10.430;2022-11-15T06:59:37;6.30;99.90
37896;DHT22;23733;53.254;10.430;2022-11-15T07:02:03;6.30;99.90
37896;DHT22;23733;53.254;10.430;2022-11-15T07:04:29;6.30;99.90
37896;DHT22;23733;53.254;10.430;2022-11-15T07:06:55;6.30;99.90
37896;DHT22;23733;53.254;10.430;2022-11-15T07:09:21;6.30;99.90
37896;DHT22;23733;53.254;10.430;2022-11-15T07:11:47;6.30;99.90
37896;DHT22;23733;53.254;10.430;2022-11-15T07:14:13;6.30;99.90
37896;DHT22;23733;53.254;10.430;2022-11-15T07:16:39;6.30;99.90
37896;DHT22;23733;53.254;10.430;2022-11-15T07:19:05;6.30;99.90
37896;DHT22;23733;53.254;10.430;2022-11-15T07:21:32;6.40;99.90
37896;DHT22;23733;53.254;10.430;2022-11-15T07:23:58;6.30;99.90
37896;DHT22;23733;53.254;10.430;2022-11-15T07:26:24;6.40;99.90
37896;DHT22;23733;53.254;10.430;2022-11-15T07:28:50;6.40;99.90
37896;DHT22;23733;53.254;10.430;2022-11-15T07:31:16;6.40;99.90
37896;DHT22;23733;53.254;10.430;2022-11-15T07:33:42;6.40;99.90
37896;DHT22;23733;53.254;10.430;2022-11-15T07:36:08;6.40;99.90
37896;DHT22;23733;53.254;10.430;2022-11-15T07:38:35;6.50;99.90
37896;DHT22;23733;53.254;10.430;2022-11-15T07:41:03;6.50;99.90
37896;DHT22;23733;53.254;10.430;2022-11-15T07:43:29;6.50;99.90
37896;DHT22;23733;53.254;10.430;2022-11-15T07:45:56;6.50;99.90
37896;DHT22;23733;53.254;10.430;2022-11-15T07:48:22;6.60;99.90
37896;DHT22;23733;53.254;10.430;2022-11-15T07:50:49;6.60;99.90
37896;DHT22;23733;53.254;10.430;2022-11-15T07:53:15;6.60;99.90
37896;DHT22;23733;53.254;10.430;2022-11-15T07:55:41;6.60;99.90
37896;DHT22;23733;53.254;10.430;2022-11-15T07:58:10;6.60;99.90
37896;DHT22;23733;53.254;10.430;2022-11-15T08:00:37;6.60;99.90
37896;DHT22;23733;53.254;10.430;2022-11-15T08:03:04;6.70;99.90
37896;DHT22;23733;53.254;10.430;2022-11-15T08:05:31;6.70;99.90
37896;DHT22;23733;53.254;10.430;2022-11-15T08:07:57;6.70;99.90
37896;DHT22;23733;53.254;10.430;2022-11-15T08:10:23;6.70;99.90
37896;DHT22;23733;53.254;10.430;2022-11-15T08:13:00;6.80;99.90
37896;DHT22;23733;53.254;10.430;2022-11-15T08:15:27;6.80;99.90
37896;DHT22;23733;53.254;10.430;2022-11-15T08:17:54;6.80;99.90
37896;DHT22;23733;53.254;10.430;2022-11-15T08:20:20;6.80;99.90
37896;DHT22;23733;53.254;10.430;2022-11-15T08:22:46;6.80;99.90
37896;DHT22;23733;53.254;10.430;2022-11-15T08:25:12;6.80;99.90
37896;DHT22;23733;53.254;10.430;2022-11-15T08:27:38;6.80;99.90
37896;DHT22;23733;53.254;10.430;2022-11-15T08:30:05;6.80;99.90
37896;DHT22;23733;53.254;10.430;2022-11-15T08:32:32;6.90;99.90
37896;DHT22;23733;53.254;10.430;2022-11-15T08:34:58;6.90;99.90
37896;DHT22;23733;53.254;10.430;2022-11-15T08:37:24;7.00;99.90
37896;DHT22;23733;53.254;10.430;2022-11-15T08:39:50;7.00;99.90
37896;DHT22;23733;53.254;10.430;2022-11-15T08:42:16;7.00;99.90
37896;DHT22;23733;53.254;10.430;2022-11-15T08:44:42;7.00;99.90
37896;DHT22;23733;53.254;10.430;2022-11-15T08:47:10;7.10;99.90
37896;DHT22;23733;53.254;10.430;2022-11-15T08:49:36;7.00;99.90
37896;DHT22;23733;53.254;10.430;2022-11-15T08:52:02;7.10;99.90
37896;DHT22;23733;53.254;10.430;2022-11-15T08:54:29;7.10;99.90
37896;DHT22;23733;53.254;10.430;2022-11-15T08:56:55;7.20;99.90
37896;DHT22;23733;53.254;10.430;2022-11-15T08:59:21;7.20;99.90
37896;DHT22;23733;53.254;10.430;2022-11-15T09:01:47;7.30;99.90
37896;DHT22;23733;53.254;10.430;2022-11-15T09:04:13;7.30;99.90
37896;DHT22;23733;53.254;10.430;2022-11-15T09:31:05;7.30;99.90
37896;DHT22;23733;53.254;10.430;2022-11-15T09:33:31;7.50;99.90
37896;DHT22;23733;53.254;10.430;2022-11-15T09:51:27;7.60;99.90
37896;DHT22;23733;53.254;10.430;2022-11-15T09:54:09;8.00;99.90
37896;DHT22;23733;53.254;10.430;2022-11-15T09:56:41;8.20;99.90
37896;DHT22;23733;53.254;10.430;2022-11-15T10:04:25;8.40;99.90
37896;DHT22;23733;53.254;10.430;2022-11-15T10:07:06;8.40;99.90
37896;DHT22;23733;53.254;10.430;2022-11-15T10:27:17;8.50;99.90
37896;DHT22;23733;53.254;10.430;2022-11-15T10:42:15;8.90;99.90
37896;DHT22;23733;53.254;10.430;2022-11-15T11:36:48;9.20;99.90
37896;DHT22;23733;53.254;10.430;2022-11-15T11:39:44;10.10;99.90
37896;DHT22;23733;53.254;10.430;2022-11-15T11:42:26;10.20;99.90
37896;DHT22;23733;53.254;10.430;2022-11-15T11:45:15;10.20;99.90
37896;DHT22;23733;53.254;10.430;2022-11-15T11:47:47;10.20;99.90
37896;DHT22;23733;53.254;10.430;2022-11-15T11:50:21;10.30;99.90
37896;DHT22;23733;53.254;10.430;2022-11-15T11:53:08;10.30;99.90
37896;DHT22;23733;53.254;10.430;2022-11-15T11:55:43;10.40;99.90
37896;DHT22;23733;53.254;10.430;2022-11-15T12:01:12;10.40;99.90
37896;DHT22;23733;53.254;10.430;2022-11-15T12:06:21;10.40;99.90
37896;DHT22;23733;53.254;10.430;2022-11-15T12:08:53;10.50;99.90
37896;DHT22;23733;53.254;10.430;2022-11-15T12:11:39;10.50;99.90
37896;DHT22;23733;53.254;10.430;2022-11-15T12:14:16;10.60;99.90
37896;DHT22;23733;53.254;10.430;2022-11-15T12:16:47;10.70;99.90
37896;DHT22;23733;53.254;10.430;2022-11-15T12:19:13;10.70;99.90
37896;DHT22;23733;53.254;10.430;2022-11-15T12:21:46;10.80;99.90
37896;DHT22;23733;53.254;10.430;2022-11-15T12:25:19;10.80;99.90
37896;DHT22;23733;53.254;10.430;2022-11-15T12:27:17;10.70;99.90
37896;DHT22;23733;53.254;10.430;2022-11-15T12:29:52;10.70;99.90
37896;DHT22;23733;53.254;10.430;2022-11-15T12:32:26;10.80;99.90
37896;DHT22;23733;53.254;10.430;2022-11-15T12:34:53;10.80;99.90
37896;DHT22;23733;53.254;10.430;2022-11-15T12:42:40;10.80;99.90
37896;DHT22;23733;53.254;10.430;2022-11-15T12:45:31;10.80;99.90
37896;DHT22;23733;53.254;10.430;2022-11-15T12:58:57;10.90;99.90
37896;DHT22;23733;53.254;10.430;2022-11-15T13:06:59;10.80;99.90
37896;DHT22;23733;53.254;10.430;2022-11-15T15:05:14;11.00;99.90
37896;DHT22;23733;53.254;10.430;2022-11-15T15:07:41;11.00;99.90
37896;DHT22;23733;53.254;10.430;2022-11-15T15:10:07;11.00;99.90
37896;DHT22;23733;53.254;10.430;2022-11-15T15:12:33;11.00;99.90
37896;DHT22;23733;53.254;10.430;2022-11-15T15:14:59;11.00;99.90
37896;DHT22;23733;53.254;10.430;2022-11-15T15:17:25;10.90;99.90
37896;DHT22;23733;53.254;10.430;2022-11-15T15:19:51;10.90;99.90
37896;DHT22;23733;53.254;10.430;2022-11-15T15:22:19;11.00;99.90
37896;DHT22;23733;53.254;10.430;2022-11-15T15:24:47;10.90;99.90
37896;DHT22;23733;53.254;10.430;2022-11-15T15:27:13;10.90;99.90
37896;DHT22;23733;53.254;10.430;2022-11-15T15:29:40;10.90;99.90
37896;DHT22;23733;53.254;10.430;2022-11-15T15:32:07;10.80;99.90
37896;DHT22;23733;53.254;10.430;2022-11-15T15:34:34;10.80;99.90
37896;DHT22;23733;53.254;10.430;2022-11-15T15:39:35;10.80;99.90
37896;DHT22;23733;53.254;10.430;2022-11-15T15:42:01;10.80;99.90
37896;DHT22;23733;53.254;10.430;2022-11-15T15:44:27;10.70;99.90
37896;DHT22;23733;53.254;10.430;2022-11-15T15:46:53;10.70;99.90
37896;DHT22;23733;53.254;10.430;2022-11-15T15:49:19;10.70;99.90
37896;DHT22;23733;53.254;10.430;2022-11-15T15:51:45;10.70;99.90
37896;DHT22;23733;53.254;10.430;2022-11-15T15:54:11;10.70;99.90
37896;DHT22;23733;53.254;10.430;2022-11-15T15:56:37;10.70;99.90
37896;DHT22;23733;53.254;10.430;2022-11-15T15:59:03;10.60;99.90
37896;DHT22;23733;53.254;10.430;2022-11-15T16:01:29;10.70;99.90
37896;DHT22;23733;53.254;10.430;2022-11-15T16:03:55;10.60;99.90
37896;DHT22;23733;53.254;10.430;2022-11-15T16:09:02;10.60;99.90
37896;DHT22;23733;53.254;10.430;2022-11-15T16:11:29;10.60;99.90
37896;DHT22;23733;53.254;10.430;2022-11-15T16:13:55;10.60;99.90
37896;DHT22;23733;53.254;10.430;2022-11-15T16:16:21;10.60;99.90
37896;DHT22;23733;53.254;10.430;2022-11-15T16:18:47;10.60;99.90
37896;DHT22;23733;53.254;10.430;2022-11-15T16:21:13;10.60;99.90
37896;DHT22;23733;53.254;10.430;2022-11-15T16:23:39;10.60;99.90
37896;DHT22;23733;53.254;10.430;2022-11-15T16:26:26;10.50;99.90
37896;DHT22;23733;53.254;10.430;2022-11-15T16:28:53;10.50;99.90
37896;DHT22;23733;53.254;10.430;2022-11-15T16:31:19;10.60;99.90
37896;DHT22;23733;53.254;10.430;2022-11-15T16:33:48;10.60;99.90
37896;DHT22;23733;53.254;10.430;2022-11-15T16:38:45;10.60;99.90
37896;DHT22;23733;53.254;10.430;2022-11-15T16:41:11;10.60;99.90
37896;DHT22;23733;53.254;10.430;2022-11-15T16:43:37;10.60;99.90
37896;DHT22;23733;53.254;10.430;2022-11-15T16:46:12;10.50;99.90
37896;DHT22;23733;53.254;10.430;2022-11-15T16:48:39;10.50;99.90
37896;DHT22;23733;53.254;10.430;2022-11-15T16:51:05;10.50;99.90
37896;DHT22;23733;53.254;10.430;2022-11-15T16:53:32;10.50;99.90
37896;DHT22;23733;53.254;10.430;2022-11-15T16:55:58;10.50;99.90
37896;DHT22;23733;53.254;10.430;2022-11-15T16:58:24;10.50;99.90
37896;DHT22;23733;53.254;10.430;2022-11-15T17:00:51;10.50;99.90
37896;DHT22;23733;53.254;10.430;2022-11-15T17:03:19;10.50;99.90
37896;DHT22;23733;53.254;10.430;2022-11-15T17:05:45;10.50;99.90
37896;DHT22;23733;53.254;10.430;2022-11-15T17:08:11;10.40;99.90
37896;DHT22;23733;53.254;10.430;2022-11-15T17:10:39;10.50;99.90
37896;DHT22;23733;53.254;10.430;2022-11-15T17:13:11;10.50;99.90
37896;DHT22;23733;53.254;10.430;2022-11-15T17:15:38;10.50;99.90
37896;DHT22;23733;53.254;10.430;2022-11-15T17:18:04;10.50;99.90
37896;DHT22;23733;53.254;10.430;2022-11-15T17:20:31;10.50;99.90
37896;DHT22;23733;53.254;10.430;2022-11-15T17:22:57;10.50;99.90
37896;DHT22;23733;53.254;10.430;2022-11-15T17:25:23;10.40;99.90
37896;DHT22;23733;53.254;10.430;2022-11-15T17:27:49;10.50;99.90
37896;DHT22;23733;53.254;10.430;2022-11-15T17:30:15;10.50;99.90
37896;DHT22;23733;53.254;10.430;2022-11-15T17:32:43;10.40;99.90
37896;DHT22;23733;53.254;10.430;2022-11-15T17:35:10;10.50;99.90
37896;DHT22;23733;53.254;10.430;2022-11-15T17:37:38;10.50;99.90
37896;DHT22;23733;53.254;10.430;2022-11-15T17:40:04;10.50;99.90
37896;DHT22;23733;53.254;10.430;2022-11-15T17:42:30;10.50;99.90
37896;DHT22;23733;53.254;10.430;2022-11-15T17:44:57;10.50;99.90
37896;DHT22;23733;53.254;10.430;2022-11-15T17:47:23;10.50;99.90
37896;DHT22;23733;53.254;10.430;2022-11-15T17:49:49;10.50;99.90
37896;DHT22;23733;53.254;10.430;2022-11-15T17:52:15;10.50;99.90
37896;DHT22;23733;53.254;10.430;2022-11-15T17:54:41;10.50;99.90
37896;DHT22;23733;53.254;10.430;2022-11-15T17:57:07;10.50;99.90
37896;DHT22;23733;53.254;10.430;2022-11-15T17:59:33;10.60;99.90
37896;DHT22;23733;53.254;10.430;2022-11-15T18:01:59;10.60;99.90
37896;DHT22;23733;53.254;10.430;2022-11-15T18:04:25;10.60;99.90
37896;DHT22;23733;53.254;10.430;2022-11-15T18:06:54;10.60;99.90
37896;DHT22;23733;53.254;10.430;2022-11-15T18:09:21;10.50;99.90
37896;DHT22;23733;53.254;10.430;2022-11-15T18:11:47;10.50;99.90
37896;DHT22;23733;53.254;10.430;2022-11-15T18:14:17;10.60;99.90
37896;DHT22;23733;53.254;10.430;2022-11-15T18:16:43;10.60;99.90
37896;DHT22;23733;53.254;10.430;2022-11-15T18:19:10;10.60;99.90
37896;DHT22;23733;53.254;10.430;2022-11-15T18:21:44;10.60;99.90
37896;DHT22;23733;53.254;10.430;2022-11-15T18:24:23;10.60;99.90
37896;DHT22;23733;53.254;10.430;2022-11-15T18:26:49;10.70;99.90
37896;DHT22;23733;53.254;10.430;2022-11-15T18:29:16;10.70;99.90
37896;DHT22;23733;53.254;10.430;2022-11-15T18:31:45;10.70;99.90
37896;DHT22;23733;53.254;10.430;2022-11-15T18:34:15;10.70;99.90
37896;DHT22;23733;53.254;10.430;2022-11-15T18:36:41;10.70;99.90
37896;DHT22;23733;53.254;10.430;2022-11-15T18:39:09;10.70;99.90
37896;DHT22;23733;53.254;10.430;2022-11-15T18:41:42;10.70;99.90
37896;DHT22;23733;53.254;10.430;2022-11-15T18:44:11;10.80;99.90
37896;DHT22;23733;53.254;10.430;2022-11-15T18:46:45;10.80;99.90
37896;DHT22;23733;53.254;10.430;2022-11-15T18:49:13;10.80;99.90
37896;DHT22;23733;53.254;10.430;2022-11-15T18:51:40;10.90;99.90
37896;DHT22;23733;53.254;10.430;2022-11-15T18:54:10;10.90;99.90
37896;DHT22;23733;53.254;10.430;2022-11-15T18:56:36;10.90;99.90
37896;DHT22;23733;53.254;10.430;2022-11-15T18:59:03;10.90;99.90
37896;DHT22;23733;53.254;10.430;2022-11-15T19:01:34;10.90;99.90
37896;DHT22;23733;53.254;10.430;2022-11-15T19:04:13;10.90;99.90
37896;DHT22;23733;53.254;10.430;2022-11-15T19:06:41;10.90;99.90
37896;DHT22;23733;53.254;10.430;2022-11-15T19:09:09;10.90;99.90
37896;DHT22;23733;53.254;10.430;2022-11-15T19:11:37;10.90;99.90
37896;DHT22;23733;53.254;10.430;2022-11-15T19:14:12;10.90;99.90
37896;DHT22;23733;53.254;10.430;2022-11-15T19:16:43;10.90;99.90
37896;DHT22;23733;53.254;10.430;2022-11-15T19:19:13;10.90;99.90
37896;DHT22;23733;53.254;10.430;2022-11-15T19:21:39;10.90;99.90
37896;DHT22;23733;53.254;10.430;2022-11-15T19:24:06;10.80;99.90
37896;DHT22;23733;53.254;10.430;2022-11-15T19:26:32;10.80;99.90
37896;DHT22;23733;53.254;10.430;2022-11-15T19:29:00;10.80;99.90
37896;DHT22;23733;53.254;10.430;2022-11-15T19:31:28;10.80;99.90
37896;DHT22;23733;53.254;10.430;2022-11-15T19:33:55;10.80;99.90
37896;DHT22;23733;53.254;10.430;2022-11-15T19:36:25;10.80;99.90
37896;DHT22;23733;53.254;10.430;2022-11-15T19:38:54;10.80;99.90
37896;DHT22;23733;53.254;10.430;2022-11-15T19:41:22;10.80;99.90
37896;DHT22;23733;53.254;10.430;2022-11-15T19:43:49;10.80;99.90
37896;DHT22;23733;53.254;10.430;2022-11-15T19:46:19;10.80;99.90
37896;DHT22;23733;53.254;10.430;2022-11-15T19:48:47;10.70;99.90
37896;DHT22;23733;53.254;10.430;2022-11-15T19:51:15;10.70;99.90
37896;DHT22;23733;53.254;10.430;2022-11-15T19:53:41;10.80;99.90
37896;DHT22;23733;53.254;10.430;2022-11-15T19:56:12;10.70;99.90
37896;DHT22;23733;53.254;10.430;2022-11-15T19:58:39;10.80;99.90
37896;DHT22;23733;53.254;10.430;2022-11-15T20:01:26;10.80;99.90
37896;DHT22;23733;53.254;10.430;2022-11-15T20:03:54;10.80;99.90
37896;DHT22;23733;53.254;10.430;2022-11-15T20:06:23;10.70;99.90
37896;DHT22;23733;53.254;10.430;2022-11-15T20:08:49;10.70;99.90
37896;DHT22;23733;53.254;10.430;2022-11-15T20:11:16;10.70;99.90
37896;DHT22;23733;53.254;10.430;2022-11-15T20:13:42;10.70;99.90
37896;DHT22;23733;53.254;10.430;2022-11-15T20:16:17;10.70;99.90
37896;DHT22;23733;53.254;10.430;2022-11-15T20:18:44;10.70;99.90
37896;DHT22;23733;53.254;10.430;2022-11-15T20:21:10;10.70;99.90
37896;DHT22;23733;53.254;10.430;2022-11-15T20:23:37;10.70;99.90
37896;DHT22;23733;53.254;10.430;2022-11-15T20:26:04;10.70;99.90
37896;DHT22;23733;53.254;10.430;2022-11-15T20:28:30;10.70;99.90
37896;DHT22;23733;53.254;10.430;2022-11-15T20:30:58;10.70;99.90
37896;DHT22;23733;53.254;10.430;2022-11-15T20:33:25;10.70;99.90
37896;DHT22;23733;53.254;10.430;2022-11-15T20:35:51;10.70;99.90
37896;DHT22;23733;53.254;10.430;2022-11-15T20:38:17;10.60;99.90
37896;DHT22;23733;53.254;10.430;2022-11-15T20:40:45;10.60;99.90
37896;DHT22;23733;53.254;10.430;2022-11-15T20:43:13;10.60;99.90
37896;DHT22;23733;53.254;10.430;2022-11-15T20:45:42;10.60;99.90
37896;DHT22;23733;53.254;10.430;2022-11-15T20:48:09;10.60;99.90
37896;DHT22;23733;53.254;10.430;2022-11-15T20:50:35;10.60;99.90
37896;DHT22;23733;53.254;10.430;2022-11-15T20:53:01;10.60;99.90
37896;DHT22;23733;53.254;10.430;2022-11-15T20:55:27;10.60;99.90
37896;DHT22;23733;53.254;10.430;2022-11-15T20:57:53;10.50;99.90